createdAt,value
2023-02-09T00:00:37.449Z,-4.36
2023-02-09T00:03:39.041Z,-4.39
2023-02-09T00:06:40.503Z,-4.32
2023-02-09T00:09:41.991Z,-4.32
2023-02-09T00:13:02.018Z,-4.33
2023-02-09T00:16:04.069Z,-4.43
2023-02-09T00:19:05.750Z,-4.42
2023-02-09T00:22:07.319Z,-4.34
2023-02-09T00:25:08.737Z,-4.32
2023-02-09T00:28:10.221Z,-4.46
2023-02-09T00:31:12.739Z,-4.52
2023-02-09T00:34:17.483Z,-4.50
2023-02-09T00:37:18.980Z,-4.58
2023-02-09T00:40:20.640Z,-4.66
2023-02-09T00:43:22.106Z,-4.67
2023-02-09T00:46:23.510Z,-4.73
2023-02-09T00:49:25.034Z,-4.82
2023-02-09T00:52:26.493Z,-4.85
2023-02-09T00:55:28.328Z,-4.91
2023-02-09T00:58:29.866Z,-5.04
2023-02-09T01:01:31.393Z,-5.16
2023-02-09T01:04:33.272Z,-5.04
2023-02-09T01:07:34.952Z,-5.02
2023-02-09T01:10:38.003Z,-4.96
2023-02-09T01:13:39.897Z,-4.94
2023-02-09T01:16:41.502Z,-4.96
2023-02-09T01:19:42.964Z,-4.89
2023-02-09T01:22:44.471Z,-4.95
2023-02-09T01:25:45.955Z,-4.96
2023-02-09T01:28:52.384Z,-4.92
2023-02-09T01:31:54.002Z,-5.02
2023-02-09T01:34:55.671Z,-5.06
2023-02-09T01:37:57.164Z,-5.07
2023-02-09T01:40:58.613Z,-5.06
2023-02-09T01:44:02.894Z,-5.05
2023-02-09T01:47:04.429Z,-5.11
2023-02-09T01:50:06.370Z,-5.16
2023-02-09T01:53:08.533Z,-5.27
2023-02-09T01:56:18.458Z,-5.29
2023-02-09T01:59:20.410Z,-5.26
2023-02-09T02:02:22.865Z,-5.31
2023-02-09T02:05:25.711Z,-5.30
2023-02-09T02:08:34.689Z,-5.27
2023-02-09T02:11:37.717Z,-5.21
2023-02-09T02:14:40.005Z,-5.18
2023-02-09T02:17:50.583Z,-5.27
2023-02-09T02:21:11.398Z,-5.29
2023-02-09T02:24:48.381Z,-5.44
2023-02-09T02:28:08.033Z,-5.45
2023-02-09T02:31:39.944Z,-5.48
2023-02-09T02:34:53.165Z,-5.49
2023-02-09T02:38:15.171Z,-5.45
2023-02-09T02:41:26.803Z,-5.39
2023-02-09T02:44:30.560Z,-5.45
2023-02-09T02:47:37.156Z,-5.59
2023-02-09T02:50:46.064Z,-5.56
2023-02-09T02:53:53.020Z,-5.58
2023-02-09T02:56:58.619Z,-5.53
2023-02-09T03:00:06.336Z,-5.55
2023-02-09T03:03:18.278Z,-5.54
2023-02-09T03:06:19.779Z,-5.52
2023-02-09T03:09:21.239Z,-5.72
2023-02-09T03:12:45.656Z,-5.78
2023-02-09T03:15:47.142Z,-5.74
2023-02-09T03:19:25.307Z,-5.63
2023-02-09T03:22:35.381Z,-5.58
2023-02-09T03:25:48.686Z,-5.58
2023-02-09T03:28:54.524Z,-5.71
2023-02-09T03:31:56.854Z,-5.75
2023-02-09T03:34:59.060Z,-5.82
2023-02-09T03:38:01.385Z,-5.75
2023-02-09T03:41:03.223Z,-5.78
2023-02-09T03:44:23.222Z,-5.83
2023-02-09T03:47:24.725Z,-5.87
2023-02-09T03:50:26.289Z,-5.89
2023-02-09T03:53:27.796Z,-5.90
2023-02-09T03:56:29.275Z,-5.85
2023-02-09T03:59:31.164Z,-5.83
2023-02-09T04:02:32.654Z,-5.81
2023-02-09T04:05:34.113Z,-5.83
2023-02-09T04:08:36.188Z,-5.86
2023-02-09T04:11:37.638Z,-5.85
2023-02-09T04:14:39.866Z,-5.89
2023-02-09T04:17:41.378Z,-5.93
2023-02-09T04:20:43.010Z,-5.98
2023-02-09T04:23:44.629Z,-6.03
2023-02-09T04:26:46.122Z,-6.05
2023-02-09T04:29:47.550Z,-5.97
2023-02-09T04:32:49.047Z,-5.95
2023-02-09T04:35:51.637Z,-5.97
2023-02-09T04:38:53.150Z,-5.89
2023-02-09T04:41:54.611Z,-6.00
2023-02-09T04:44:56.077Z,-6.12
2023-02-09T04:47:57.573Z,-6.10
2023-02-09T04:50:59.087Z,-6.10
2023-02-09T04:54:00.571Z,-6.12
2023-02-09T04:57:20.514Z,-6.06
2023-02-09T05:00:22.107Z,-6.11
2023-02-09T05:03:25.978Z,-6.23
2023-02-09T05:06:27.875Z,-6.19
2023-02-09T05:09:29.920Z,-6.17
2023-02-09T05:12:31.374Z,-6.13
2023-02-09T05:15:32.945Z,-6.14
2023-02-09T05:18:35.475Z,-6.02
2023-02-09T05:21:36.906Z,-5.98
2023-02-09T05:24:38.423Z,-5.94
2023-02-09T05:27:39.899Z,-5.91
2023-02-09T05:30:41.577Z,-5.90
2023-02-09T05:33:49.129Z,-5.87
2023-02-09T05:36:50.679Z,-5.91
2023-02-09T05:39:52.883Z,-5.87
2023-02-09T05:42:55.048Z,-5.88
2023-02-09T05:45:57.120Z,-5.95
2023-02-09T05:48:58.621Z,-5.95
2023-02-09T05:52:00.383Z,-5.90
2023-02-09T05:55:02.004Z,-5.85
2023-02-09T05:58:03.463Z,-5.90
2023-02-09T06:01:05.460Z,-5.96
2023-02-09T06:04:09.071Z,-6.02
2023-02-09T06:07:12.048Z,-6.09
2023-02-09T06:10:14.012Z,-6.08
2023-02-09T06:13:15.845Z,-6.11
2023-02-09T06:16:17.285Z,-6.10
2023-02-09T06:19:21.220Z,-6.12
2023-02-09T06:22:22.553Z,-6.11
2023-02-09T06:25:24.107Z,-6.10
2023-02-09T06:28:25.705Z,-6.12
2023-02-09T06:31:27.376Z,-6.17
2023-02-09T06:34:29.065Z,-6.11
2023-02-09T06:37:30.565Z,-6.08
2023-02-09T06:40:32.067Z,-6.16
2023-02-09T06:43:33.815Z,-6.16
2023-02-09T06:46:35.374Z,-6.13
2023-02-09T06:49:36.909Z,-6.10
2023-02-09T06:52:38.775Z,-6.05
2023-02-09T06:55:40.208Z,-5.97
2023-02-09T06:58:42.247Z,-5.91
2023-02-09T07:01:43.845Z,-5.96
2023-02-09T07:04:45.413Z,-5.91
2023-02-09T07:07:47.078Z,-5.90
2023-02-09T07:10:48.546Z,-5.89
2023-02-09T07:13:50.035Z,-5.89
2023-02-09T07:16:51.573Z,-5.90
2023-02-09T07:19:53.134Z,-5.76
2023-02-09T07:22:54.644Z,-5.71
2023-02-09T07:25:56.358Z,-5.70
2023-02-09T07:28:57.793Z,-5.56
2023-02-09T07:31:59.830Z,-5.40
2023-02-09T07:35:01.359Z,-5.28
2023-02-09T07:38:02.858Z,-5.14
2023-02-09T07:41:06.330Z,-5.04
2023-02-09T07:44:09.263Z,-4.96
2023-02-09T07:47:10.812Z,-4.79
2023-02-09T07:50:12.262Z,-4.70
2023-02-09T07:53:13.758Z,-4.51
2023-02-09T07:56:17.990Z,-4.35
2023-02-09T07:59:19.535Z,-4.18
2023-02-09T08:02:48.867Z,-4.03
2023-02-09T08:06:19.673Z,-3.90
2023-02-09T08:09:21.695Z,-3.79
2023-02-09T08:12:48.119Z,-3.63
2023-02-09T08:15:57.330Z,-3.55
2023-02-09T08:19:04.219Z,-3.46
2023-02-09T08:22:05.670Z,-3.29
2023-02-09T08:25:11.021Z,-3.12
2023-02-09T08:28:12.611Z,-3.08
2023-02-09T08:31:18.879Z,-2.97
2023-02-09T08:34:20.509Z,-2.83
2023-02-09T08:37:22.173Z,-2.71
2023-02-09T08:40:23.708Z,-2.58
2023-02-09T08:43:25.182Z,-2.45
2023-02-09T08:46:26.986Z,-2.35
2023-02-09T08:49:28.595Z,-2.26
2023-02-09T08:52:30.082Z,-2.17
2023-02-09T08:55:33.672Z,-2.03
2023-02-09T08:58:35.282Z,-1.97
2023-02-09T09:01:38.919Z,-1.88
2023-02-09T09:04:40.417Z,-1.73
2023-02-09T09:07:42.107Z,-1.65
2023-02-09T09:10:43.556Z,-1.55
2023-02-09T09:13:45.058Z,-1.46
2023-02-09T09:16:46.626Z,-1.36
2023-02-09T09:19:48.357Z,-1.24
2023-02-09T09:22:49.879Z,-1.13
2023-02-09T09:25:51.414Z,-1.03
2023-02-09T09:28:53.043Z,-0.94
2023-02-09T09:31:54.501Z,-0.84
2023-02-09T09:34:58.873Z,-0.69
2023-02-09T09:38:00.835Z,-0.50
2023-02-09T09:41:04.729Z,-0.46
2023-02-09T09:48:54.040Z,-0.05
2023-02-09T09:51:58.125Z,0.08
2023-02-09T09:55:01.478Z,0.26
2023-02-09T09:58:06.711Z,0.37
2023-02-09T10:01:17.437Z,0.44
2023-02-09T10:04:21.092Z,0.48
2023-02-09T10:07:30.875Z,0.55
2023-02-09T10:10:45.675Z,0.67
2023-02-09T10:13:50.504Z,0.77
2023-02-09T10:16:52.076Z,0.69
2023-02-09T10:20:07.515Z,0.68
2023-02-09T10:23:20.857Z,0.71
2023-02-09T10:26:27.792Z,0.72
2023-02-09T10:29:29.316Z,0.72
2023-02-09T10:32:41.039Z,0.75
2023-02-09T10:35:51.478Z,0.85
2023-02-09T10:39:03.289Z,0.85
2023-02-09T10:42:20.411Z,0.88
2023-02-09T10:45:27.683Z,1.04
2023-02-09T10:48:40.616Z,1.13
2023-02-09T10:51:42.124Z,1.18
2023-02-09T10:54:56.695Z,1.34
2023-02-09T10:58:08.446Z,1.55
2023-02-09T11:01:09.984Z,1.67
2023-02-09T11:04:20.416Z,1.87
2023-02-09T11:07:26.680Z,2.17
2023-02-09T11:10:30.697Z,2.40
2023-02-09T11:13:33.616Z,2.57
2023-02-09T11:16:53.567Z,2.74
2023-02-09T11:20:32.147Z,2.85
2023-02-09T11:24:03.069Z,3.01
2023-02-09T11:27:23.839Z,3.05
2023-02-09T11:30:35.617Z,3.07
2023-02-09T11:34:09.041Z,3.21
2023-02-09T11:37:25.146Z,3.36
2023-02-09T11:40:44.030Z,3.45
2023-02-09T11:43:48.846Z,3.47
2023-02-09T11:46:58.576Z,3.49
2023-02-09T11:50:05.654Z,3.50
2023-02-09T11:53:26.187Z,3.44
2023-02-09T11:56:28.732Z,3.48
2023-02-09T11:59:39.120Z,3.69
2023-02-09T12:02:51.345Z,3.69
2023-02-09T12:05:54.099Z,3.74
2023-02-09T12:09:11.737Z,3.74
2023-02-09T12:12:28.000Z,3.87
2023-02-09T12:15:40.725Z,3.88
2023-02-09T12:18:45.292Z,4.01
2023-02-09T12:21:46.797Z,4.06
2023-02-09T12:25:22.689Z,4.16
2023-02-09T12:28:24.232Z,4.14
2023-02-09T12:31:27.392Z,4.33
2023-02-09T12:34:51.365Z,4.40
2023-02-09T12:38:19.551Z,4.43
2023-02-09T12:41:24.412Z,4.54
2023-02-09T12:44:25.839Z,4.63
2023-02-09T12:47:45.112Z,4.66
2023-02-09T12:50:53.521Z,4.67
2023-02-09T12:53:56.114Z,4.80
2023-02-09T12:57:16.160Z,4.92
2023-02-09T13:00:18.759Z,5.02
2023-02-09T13:03:23.248Z,5.01
2023-02-09T13:06:39.303Z,5.01
2023-02-09T13:09:42.574Z,5.04
2023-02-09T13:12:50.574Z,4.98
2023-02-09T13:16:23.664Z,5.00
2023-02-09T13:19:48.926Z,5.03
2023-02-09T13:22:50.399Z,5.20
2023-02-09T13:26:00.422Z,5.13
2023-02-09T13:29:21.762Z,5.11
2023-02-09T13:32:34.774Z,5.15
2023-02-09T13:35:57.187Z,5.14
2023-02-09T13:38:58.931Z,5.29
2023-02-09T13:42:00.669Z,5.42
2023-02-09T13:45:02.430Z,5.47
2023-02-09T13:48:20.061Z,5.38
2023-02-09T13:51:23.586Z,5.44
2023-02-09T13:54:25.085Z,5.44
2023-02-09T13:57:33.888Z,5.54
2023-02-09T14:00:41.109Z,5.65
2023-02-09T14:03:58.528Z,5.50
2023-02-09T14:07:08.408Z,5.54
2023-02-09T14:10:16.999Z,5.51
2023-02-09T14:13:31.308Z,5.51
2023-02-09T14:16:41.662Z,5.67
2023-02-09T14:19:54.890Z,5.71
2023-02-09T14:22:58.987Z,5.77
2023-02-09T14:26:20.907Z,5.83
2023-02-09T14:29:31.359Z,5.98
2023-02-09T14:32:38.173Z,5.94
2023-02-09T14:35:41.249Z,6.06
2023-02-09T14:38:42.889Z,6.10
2023-02-09T14:42:17.653Z,6.07
2023-02-09T14:45:35.309Z,6.11
2023-02-09T14:48:36.853Z,6.05
2023-02-09T14:51:38.425Z,6.11
2023-02-09T14:54:48.961Z,6.32
2023-02-09T14:57:50.391Z,7.07
2023-02-09T15:00:54.102Z,6.99
2023-02-09T15:03:55.664Z,6.72
2023-02-09T15:07:01.716Z,6.51
2023-02-09T15:10:15.852Z,6.13
2023-02-09T15:13:17.421Z,5.97
2023-02-09T15:16:19.012Z,5.86
2023-02-09T15:19:22.391Z,5.80
2023-02-09T15:22:24.414Z,5.69
2023-02-09T15:25:26.227Z,5.56
2023-02-09T15:28:28.712Z,5.41
2023-02-09T15:31:30.484Z,5.35
2023-02-09T15:34:31.996Z,5.31
2023-02-09T15:37:37.057Z,5.26
2023-02-09T15:41:01.226Z,5.12
2023-02-09T15:44:34.368Z,5.15
2023-02-09T15:47:52.783Z,5.02
2023-02-09T15:50:55.119Z,4.84
2023-02-09T15:54:00.152Z,4.68
2023-02-09T15:57:01.663Z,4.57
2023-02-09T16:00:14.737Z,4.41
2023-02-09T16:03:19.141Z,4.29
2023-02-09T16:06:26.409Z,4.15
2023-02-09T16:09:29.260Z,4.04
2023-02-09T16:12:30.785Z,4.02
2023-02-09T16:15:32.278Z,3.93
2023-02-09T16:18:33.915Z,3.76
2023-02-09T16:21:36.122Z,3.60
2023-02-09T16:24:55.770Z,3.35
2023-02-09T16:27:58.038Z,3.14
2023-02-09T16:30:59.703Z,2.93
2023-02-09T16:34:01.239Z,2.74
2023-02-09T16:37:03.975Z,2.49
2023-02-09T16:40:28.753Z,2.18
2023-02-09T16:43:31.024Z,1.89
2023-02-09T16:46:33.634Z,1.73
2023-02-09T16:49:37.309Z,1.61
2023-02-09T16:52:42.923Z,1.40
2023-02-09T16:55:48.813Z,1.20
2023-02-09T16:58:50.811Z,1.05
2023-02-09T17:01:52.387Z,0.93
2023-02-09T17:04:54.251Z,0.76
2023-02-09T17:08:05.548Z,0.65
2023-02-09T17:11:07.764Z,0.53
2023-02-09T17:14:09.476Z,0.21
2023-02-09T17:17:19.004Z,0.41
2023-02-09T17:20:29.417Z,0.38
2023-02-09T17:23:31.036Z,0.27
2023-02-09T17:26:32.573Z,0.16
2023-02-09T17:29:34.149Z,0.16
2023-02-09T17:32:36.426Z,0.09
2023-02-09T17:36:17.534Z,-0.03
2023-02-09T17:39:01.637Z,-0.10
2023-02-09T17:42:03.339Z,-0.14
2023-02-09T17:45:05.042Z,-0.28
2023-02-09T17:48:08.970Z,-0.32
2023-02-09T17:51:20.197Z,-0.45
2023-02-09T17:54:21.749Z,-0.48
2023-02-09T17:57:23.608Z,-0.57
2023-02-09T18:00:26.425Z,-0.63
2023-02-09T18:03:28.017Z,-0.64
2023-02-09T18:06:38.869Z,-0.70
2023-02-09T18:09:40.357Z,-0.75
2023-02-09T18:12:42.360Z,-0.69
2023-02-09T18:15:44.466Z,-0.68
2023-02-09T18:18:47.157Z,-0.76
2023-02-09T18:21:50.486Z,-0.92
2023-02-09T18:24:52.072Z,-0.89
2023-02-09T18:27:54.436Z,-0.92
2023-02-09T18:30:56.127Z,-0.91
2023-02-09T18:33:57.722Z,-0.94
2023-02-09T18:36:59.233Z,-1.02
2023-02-09T18:40:00.679Z,-1.11
2023-02-09T18:43:04.875Z,-1.09
2023-02-09T18:46:06.622Z,-1.21
2023-02-09T18:49:12.012Z,-1.26
2023-02-09T18:52:20.834Z,-1.30
2023-02-09T18:55:24.711Z,-1.26
2023-02-09T18:58:26.281Z,-1.24
2023-02-09T19:01:27.807Z,-1.23
2023-02-09T19:04:29.395Z,-1.32
2023-02-09T19:07:32.295Z,-1.41
2023-02-09T19:10:35.963Z,-1.39
2023-02-09T19:13:37.566Z,-1.46
2023-02-09T19:16:41.103Z,-1.56
2023-02-09T19:19:43.365Z,-1.62
2023-02-09T19:22:47.146Z,-1.70
2023-02-09T19:25:48.814Z,-1.68
2023-02-09T19:28:50.445Z,-1.81
2023-02-09T19:31:55.868Z,-1.83
2023-02-09T19:34:57.360Z,-1.76
2023-02-09T19:37:59.253Z,-1.81
2023-02-09T19:41:10.768Z,-1.78
2023-02-09T19:44:12.876Z,-1.72
2023-02-09T19:47:14.948Z,-1.81
2023-02-09T19:50:16.893Z,-1.89
2023-02-09T19:53:18.379Z,-1.86
2023-02-09T19:56:20.857Z,-1.92
2023-02-09T19:59:22.411Z,-1.94
2023-02-09T20:02:23.972Z,-1.94
2023-02-09T20:05:25.500Z,-1.93
2023-02-09T20:08:26.992Z,-2.01
2023-02-09T20:11:28.559Z,-2.06
2023-02-09T20:14:31.630Z,-2.09
2023-02-09T20:17:34.940Z,-2.08
2023-02-09T20:20:41.060Z,-2.06
2023-02-09T20:23:44.966Z,-2.10
2023-02-09T20:26:48.129Z,-2.10
2023-02-09T20:29:49.994Z,-2.20
2023-02-09T20:32:51.609Z,-2.20
2023-02-09T20:35:53.155Z,-2.19
2023-02-09T20:38:54.952Z,-2.40
2023-02-09T20:42:16.936Z,-2.36
2023-02-09T20:45:36.977Z,-2.34
2023-02-09T20:48:38.566Z,-2.40
2023-02-09T20:51:40.379Z,-2.40
2023-02-09T20:54:41.974Z,-2.35
2023-02-09T20:57:43.516Z,-2.43
2023-02-09T21:00:45.371Z,-2.45
2023-02-09T21:03:46.882Z,-2.47
2023-02-09T21:06:48.440Z,-2.50
2023-02-09T21:09:49.931Z,-2.57
2023-02-09T21:12:51.489Z,-2.57
2023-02-09T21:15:53.031Z,-2.49
2023-02-09T21:18:54.549Z,-2.50
2023-02-09T21:21:56.623Z,-2.58
2023-02-09T21:24:58.124Z,-2.63
2023-02-09T21:27:59.742Z,-2.72
2023-02-09T21:31:01.425Z,-2.67
2023-02-09T21:34:03.983Z,-2.64
2023-02-09T21:37:07.963Z,-2.61
2023-02-09T21:40:10.641Z,-2.65
2023-02-09T21:43:12.337Z,-2.68
2023-02-09T21:46:16.894Z,-2.79
2023-02-09T21:49:18.467Z,-2.91
2023-02-09T21:52:20.086Z,-2.90
2023-02-09T21:55:22.027Z,-2.86
2023-02-09T21:58:23.487Z,-2.82
2023-02-09T22:01:25.101Z,-2.86
2023-02-09T22:04:26.553Z,-2.91
2023-02-09T22:07:28.135Z,-2.97
2023-02-09T22:10:29.593Z,-3.06
2023-02-09T22:13:31.112Z,-2.98
2023-02-09T22:16:32.726Z,-3.00
2023-02-09T22:19:34.619Z,-3.00
2023-02-09T22:22:36.116Z,-3.05
2023-02-09T22:25:37.615Z,-3.11
2023-02-09T22:28:39.940Z,-3.12
2023-02-09T22:31:42.206Z,-3.18
2023-02-09T22:34:43.661Z,-3.21
2023-02-09T22:37:45.382Z,-3.14
2023-02-09T22:40:46.857Z,-3.14
2023-02-09T22:44:05.948Z,-3.13
2023-02-09T22:47:07.466Z,-3.17
2023-02-09T22:50:09.195Z,-3.22
2023-02-09T22:53:10.639Z,-3.31
2023-02-09T22:56:13.268Z,-3.30
2023-02-09T22:59:15.733Z,-3.37
2023-02-09T23:02:17.420Z,-3.38
2023-02-09T23:05:18.856Z,-3.37
2023-02-09T23:08:22.332Z,-3.39
2023-02-09T23:11:24.703Z,-3.45
2023-02-09T23:14:26.251Z,-3.46
2023-02-09T23:17:27.765Z,-3.34
2023-02-09T23:20:29.269Z,-3.35
2023-02-09T23:23:30.935Z,-3.34
2023-02-09T23:26:32.970Z,-3.43
2023-02-09T23:29:34.572Z,-3.51
2023-02-09T23:32:36.116Z,-3.57
2023-02-09T23:35:41.697Z,-3.56
2023-02-09T23:38:44.924Z,-3.57
2023-02-09T23:41:46.670Z,-3.61
2023-02-09T23:44:48.206Z,-3.64
2023-02-09T23:47:49.860Z,-3.69
2023-02-09T23:50:51.324Z,-3.73
2023-02-09T23:53:54.267Z,-3.81
2023-02-09T23:56:55.741Z,-3.77
2023-02-09T23:59:57.471Z,-3.80
